Jachin, Alabama
Current Conditions -  °F | °C
As of 3:15 PM on Friday 19 Dec 2014 (Local Time) from KDYA Reporting Station
Light Rain Light Rain  
Wind Chill: 49°   Ceiling: 3900
Heat Index: 49°   Visibility: 10mi
Dew Point: 41°   Wind: 0mph
Humidity: 75%   Direction: NA
Pressure: 30.15"   Gusts: NA
Location:  32.23°N, 88.17°W
Report Text: KDYA 192115Z AUTO 00000KT 10SM -RA BKN039 09/05 A3015 RMK AO2 T00940052
Loading
Personal Weather Stations






























Interactive Weather Map New forecast layout! Learn more

10-Day Weather Forecast

Advertisements
Track Severe Weather on mobile